logo
Search for airport 
image banner adimage banner adimage banner ad
image banner ad

NVSA - Mota Lava

Located in , Vanuatu

ICAO - NVSA, IATA - MTV

Data provided by Airmate  

General information

Coordinates: S13°40'7" E167°42'46"
Elevation is 88 feet MSL.
 
View others Airports in Torba

Operational data

Special qualification required
Current time UTC:
Current local time:
Weather at : NVSC - Sola ( 28 km )
METAR: NVSC 220900Z 00000KT 9999 FEW020 SCT040 BKN120 28/25 Q1012
TAF: TAF NVSC 220500Z 2206/2306 12005KT 9999 SCT020 PROB40 INTER 2206/2212 9000 -TSRA BKN018 FEW022CB
View NOTAMs / SUP AIP / TFR affecting this airport [VIEW]
Communications frequencies: [VIEW]

Runways:

RWY identifierQFULength (ft)Width (ft)SurfaceLDA (ft)
14304598UNK
32304598UNK

Airport contact information

Address: Vanuatu

Satellite view of NVSA